Time;durP1;ratioP1;P1;durP2;ratioP2;P2;SDS_P1;SDS_P2;PMS_P1;PMS_P2;Temp;Humidity;BMP_temperature;BMP_pressure;BME280_temperature;BME280_humidity;BME280_pressure;Samples;Min_cycle;Max_cycle;Signal;HPM_P1;HPM_P2
2022/04/23 00:02:09;;;;;;;0.20;0.20;;;;;;;11.61;100.00;99503.00;6238289;23;20502;-80
2022/04/23 00:04:34;;;;;;;0.20;0.20;;;;;;;11.77;100.00;99501.56;6237908;23;20012;-79
2022/04/23 00:07:00;;;;;;;0.20;0.20;;;;;;;11.71;100.00;99503.06;6265696;23;20063;-79
2022/04/23 00:09:26;;;;;;;0.20;0.20;;;;;;;11.65;100.00;99493.47;6237794;23;20048;-79
2022/04/23 00:11:56;;;;;;;0.20;0.20;;;;;;;11.71;100.00;99511.44;6236769;23;20026;-79
2022/04/23 00:14:22;;;;;;;0.20;0.20;;;;;;;11.69;100.00;99504.66;6238357;23;20018;-80
2022/04/23 00:16:50;;;;;;;0.20;0.20;;;;;;;11.71;100.00;99502.28;6237979;23;20064;-80
2022/04/23 00:19:16;;;;;;;0.20;0.20;;;;;;;11.70;100.00;99507.06;6263900;23;20011;-80
2022/04/23 00:21:42;;;;;;;0.20;0.20;;;;;;;11.70;100.00;99511.84;6238581;23;20087;-79
2022/04/23 00:24:08;;;;;;;0.20;0.20;;;;;;;11.66;100.00;99505.44;6237941;23;20004;-80
2022/04/23 00:26:33;;;;;;;0.20;0.20;;;;;;;11.72;100.00;99509.47;6236562;23;20004;-80
2022/04/23 00:28:59;;;;;;;0.20;0.20;;;;;;;11.84;100.00;99511.19;6232177;23;20036;-80
2022/04/23 00:31:25;;;;;;;0.20;0.20;;;;;;;11.91;100.00;99517.59;6232646;23;20010;-80
2022/04/23 00:33:51;;;;;;;0.20;0.20;;;;;;;11.92;100.00;99513.59;6232487;23;20019;-80
2022/04/23 00:36:17;;;;;;;0.20;0.20;;;;;;;12.00;100.00;99509.69;6233469;23;20036;-80
2022/04/23 00:38:42;;;;;;;0.20;0.20;;;;;;;11.96;100.00;99506.06;6233233;23;20024;-79
2022/04/23 00:43:53;;;;;;;0.20;0.20;;;;;;;12.00;100.00;99520.84;6235277;23;20023;-80
2022/04/23 00:46:19;;;;;;;0.20;0.20;;;;;;;11.96;100.00;99520.00;6233502;23;20000;-79
2022/04/23 00:48:44;;;;;;;0.20;0.20;;;;;;;12.00;100.00;99526.41;6234139;23;20005;-80
2022/04/23 00:51:13;;;;;;;0.20;0.20;;;;;;;11.92;100.00;99519.19;6233488;23;20072;-79
2022/04/23 00:53:39;;;;;;;0.30;0.30;;;;;;;11.87;100.00;99522.34;6232986;23;20008;-79
2022/04/23 00:56:05;;;;;;;0.20;0.20;;;;;;;11.95;100.00;99529.56;6241288;23;20020;-80
2022/04/23 00:58:31;;;;;;;0.20;0.20;;;;;;;12.00;100.00;99531.19;6243037;23;20003;-80
2022/04/23 01:00:57;;;;;;;0.20;0.20;;;;;;;11.99;100.00;99524.03;6236993;23;20009;-80
2022/04/23 01:03:23;;;;;;;0.20;0.20;;;;;;;11.82;99.98;99511.53;6236189;23;20008;-80
2022/04/23 01:05:49;;;;;;;0.20;0.20;;;;;;;11.87;100.00;99522.34;6236045;23;20369;-80
2022/04/23 01:08:18;;;;;;;0.20;0.20;;;;;;;11.87;99.67;99516.75;6236690;23;20035;-79
2022/04/23 01:10:44;;;;;;;0.20;0.20;;;;;;;11.95;99.02;99524.00;6235850;23;20028;-80
2022/04/23 01:13:13;;;;;;;0.20;0.20;;;;;;;11.88;98.92;99518.38;6236320;23;20056;-79
2022/04/23 01:15:40;;;;;;;0.20;0.20;;;;;;;11.85;99.73;99527.50;6235879;23;20009;-80
2022/04/23 01:18:05;;;;;;;0.20;0.20;;;;;;;11.83;99.66;99535.47;6239601;23;20330;-80
2022/04/23 01:20:33;;;;;;;0.20;0.20;;;;;;;11.80;99.79;99527.84;6237058;23;20001;-80
2022/04/23 01:22:59;;;;;;;0.20;0.20;;;;;;;11.85;100.00;99523.94;6236308;23;20008;-80
2022/04/23 01:25:26;;;;;;;0.20;0.20;;;;;;;11.86;100.00;99531.09;6236811;23;20031;-80
2022/04/23 01:27:52;;;;;;;0.20;0.20;;;;;;;11.83;100.00;99541.03;6236308;23;20092;-81
2022/04/23 01:30:21;;;;;;;0.20;0.20;;;;;;;11.82;100.00;99531.06;6240117;23;20020;-80
2022/04/23 01:32:46;;;;;;;0.20;0.20;;;;;;;11.88;100.00;99540.69;6240543;23;20035;-80
2022/04/23 01:35:12;;;;;;;0.20;0.20;;;;;;;11.85;100.00;99530.28;6242561;23;20012;-79
2022/04/23 01:37:38;;;;;;;0.20;0.20;;;;;;;11.85;100.00;99535.88;6242991;23;20000;-81
2022/04/23 01:40:04;;;;;;;0.20;0.20;;;;;;;11.81;100.00;99540.56;6241391;23;20035;-80
2022/04/23 01:42:29;;;;;;;0.20;0.20;;;;;;;11.88;100.00;99534.28;6240172;23;20004;-79
2022/04/23 01:44:55;;;;;;;0.20;0.20;;;;;;;11.87;100.00;99533.47;6242998;23;20050;-80
2022/04/23 01:47:24;;;;;;;0.20;0.20;;;;;;;11.77;100.00;99534.16;6241592;23;20070;-79
2022/04/23 01:49:52;;;;;;;0.20;0.20;;;;;;;11.83;100.00;99548.59;6265805;23;20001;-80
2022/04/23 01:52:17;;;;;;;0.20;0.20;;;;;;;11.80;100.00;99552.91;6237432;23;20318;-80
2022/04/23 01:54:43;;;;;;;0.20;0.20;;;;;;;11.80;100.00;99555.72;6237824;23;20066;-79
2022/04/23 01:57:09;;;;;;;0.20;0.20;;;;;;;11.80;100.00;99562.06;6240567;23;20032;-80
2022/04/23 01:59:34;;;;;;;0.20;0.20;;;;;;;11.89;99.06;99559.00;6243139;23;20050;-80
2022/04/23 02:02:00;;;;;;;0.20;0.20;;;;;;;11.81;98.18;99565.66;6241918;23;20012;-80
2022/04/23 02:04:26;;;;;;;0.20;0.20;;;;;;;11.68;97.73;99551.25;6240934;23;20011;-79
2022/04/23 02:06:51;;;;;;;0.20;0.20;;;;;;;11.62;98.29;99565.91;6239750;23;20000;-80
2022/04/23 02:09:17;;;;;;;0.20;0.20;;;;;;;11.64;98.92;99563.53;6240731;23;20004;-79
2022/04/23 02:11:46;;;;;;;0.20;0.20;;;;;;;11.62;99.49;99560.34;6241479;23;20004;-80
2022/04/23 02:14:11;;;;;;;0.20;0.20;;;;;;;11.63;99.28;99556.38;6241562;23;20012;-80
2022/04/23 02:16:37;;;;;;;0.20;0.20;;;;;;;11.66;99.93;99566.72;6241123;23;19995;-80
2022/04/23 02:19:03;;;;;;;0.20;0.20;;;;;;;11.68;99.84;99575.53;6240794;23;20011;-79
2022/04/23 02:21:30;;;;;;;0.20;0.20;;;;;;;11.63;99.89;99567.53;6240458;23;20008;-80
2022/04/23 02:23:56;;;;;;;0.20;0.20;;;;;;;11.65;100.00;99573.50;6240124;23;20000;-80
2022/04/23 02:26:22;;;;;;;0.20;0.20;;;;;;;11.61;99.62;99572.66;6239298;23;20060;-80
2022/04/23 02:28:48;;;;;;;0.20;0.20;;;;;;;11.51;97.94;99580.56;6234610;23;20012;-80
2022/04/23 02:31:14;;;;;;;0.20;0.20;;;;;;;11.52;98.37;99578.56;6235345;23;20050;-80
2022/04/23 02:33:44;;;;;;;0.20;0.20;;;;;;;11.57;97.50;99580.22;6238161;23;19996;-79
2022/04/23 02:36:11;;;;;;;0.20;0.20;;;;;;;11.50;96.24;99573.38;6239452;23;20039;-80
2022/04/23 02:38:40;;;;;;;0.20;0.20;;;;;;;11.47;96.12;99576.13;6236858;23;20043;-80
2022/04/23 02:41:10;;;;;;;0.20;0.20;;;;;;;11.58;96.63;99576.22;6235138;23;20146;-79
2022/04/23 02:43:38;;;;;;;0.20;0.20;;;;;;;11.55;94.67;99578.56;6235291;23;20024;-79
2022/04/23 02:46:05;;;;;;;0.20;0.20;;;;;;;11.47;94.56;99574.13;6236704;23;20032;-79
2022/04/23 02:48:35;;;;;;;0.20;0.20;;;;;;;11.44;94.69;99583.25;6235272;23;20015;-80
2022/04/23 02:51:01;;;;;;;0.20;0.20;;;;;;;11.41;94.84;99577.66;6235091;23;20004;-80
2022/04/23 02:53:28;;;;;;;0.20;0.20;;;;;;;11.38;95.48;99578.41;6235952;23;19997;-80
2022/04/23 02:55:57;;;;;;;0.20;0.20;;;;;;;11.48;95.63;99581.31;6235196;23;20005;-80
2022/04/23 02:58:25;;;;;;;0.20;0.20;;;;;;;11.39;95.94;99578.03;6236157;23;20012;-79
2022/04/23 03:00:53;;;;;;;0.20;0.20;;;;;;;11.44;95.37;99588.03;6236031;23;20012;-80
2022/04/23 03:03:19;;;;;;;0.20;0.20;;;;;;;11.46;95.81;99602.38;6236596;23;20035;-79
2022/04/23 03:05:45;;;;;;;0.20;0.20;;;;;;;11.45;94.57;99601.59;6235854;23;20075;-79
2022/04/23 03:08:12;;;;;;;0.20;0.20;;;;;;;11.38;95.03;99600.69;6236012;23;20004;-80
2022/04/23 03:10:39;;;;;;;0.20;0.20;;;;;;;11.30;95.38;99599.84;6210559;23;20016;-79
2022/04/23 03:13:07;;;;;;;0.20;0.20;;;;;;;11.30;95.88;99594.28;6235053;23;19999;-80
2022/04/23 03:15:34;;;;;;;0.20;0.20;;;;;;;11.27;95.71;99611.72;6236775;23;20027;-79
2022/04/23 03:18:05;;;;;;;0.20;0.20;;;;;;;11.16;96.20;99600.47;6235106;23;20321;-80
2022/04/23 03:20:34;;;;;;;0.30;0.30;;;;;;;11.12;96.34;99615.53;6236405;23;20012;-79
2022/04/23 03:23:03;;;;;;;0.20;0.20;;;;;;;11.07;96.84;99607.53;6234799;23;20015;-79
2022/04/23 03:25:28;;;;;;;0.20;0.20;;;;;;;11.07;97.83;99613.09;6235366;23;20008;-80
2022/04/23 03:27:55;;;;;;;0.20;0.20;;;;;;;11.14;97.71;99619.56;6237012;23;20056;-78
2022/04/23 03:30:21;;;;;;;0.20;0.20;;;;;;;11.19;98.88;99618.41;6239389;23;20004;-79
2022/04/23 03:32:47;;;;;;;0.20;0.20;;;;;;;11.16;99.74;99610.81;6215372;23;20009;-79
2022/04/23 03:35:13;;;;;;;0.20;0.20;;;;;;;11.13;100.00;99617.13;6240531;23;20004;-79
2022/04/23 03:37:43;;;;;;;0.20;0.20;;;;;;;11.15;100.00;99612.00;6240209;23;20004;-79
2022/04/23 03:40:10;;;;;;;0.20;0.20;;;;;;;11.13;100.00;99608.78;6266070;23;20011;-79
2022/04/23 03:42:36;;;;;;;0.20;0.20;;;;;;;11.14;100.00;99618.75;6214442;23;20009;-79
2022/04/23 03:45:04;;;;;;;0.20;0.20;;;;;;;11.24;100.00;99620.88;6266246;23;20060;-79
2022/04/23 03:47:31;;;;;;;0.20;0.20;;;;;;;11.22;100.00;99623.22;6265654;23;19988;-79
2022/04/23 03:49:57;;;;;;;0.20;0.20;;;;;;;11.26;100.00;99626.84;6239420;23;19993;-79
2022/04/23 03:52:23;;;;;;;0.20;0.20;;;;;;;11.16;100.00;99621.94;6240396;23;20071;-80
2022/04/23 03:54:48;;;;;;;0.20;0.20;;;;;;;11.15;100.00;99634.28;6240298;23;20015;-79
2022/04/23 03:57:14;;;;;;;0.20;0.20;;;;;;;11.16;100.00;99628.31;6244569;23;20019;-79
2022/04/23 03:59:39;;;;;;;0.20;0.20;;;;;;;11.20;100.00;99634.72;6245140;22;20007;-79
2022/04/23 04:02:11;;;;;;;0.20;0.20;;;;;;;11.19;100.00;99637.91;6240545;23;20066;-79
2022/04/23 04:04:41;;;;;;;0.20;0.20;;;;;;;11.30;100.00;99646.38;6241380;23;19995;-79
2022/04/23 04:07:09;;;;;;;0.20;0.20;;;;;;;11.33;100.00;99642.81;6240190;23;20011;-79
2022/04/23 04:09:35;;;;;;;0.20;0.20;;;;;;;11.35;100.00;99648.84;6240551;23;20001;-79
2022/04/23 04:12:01;;;;;;;0.20;0.20;;;;;;;11.23;100.00;99638.72;6240432;23;20008;-80
2022/04/23 04:14:30;;;;;;;0.20;0.20;;;;;;;11.27;100.00;99656.28;6240428;23;20004;-79
2022/04/23 04:17:00;;;;;;;0.20;0.20;;;;;;;11.25;100.00;99647.53;6240873;23;20039;-79
2022/04/23 04:19:32;;;;;;;0.20;0.20;;;;;;;11.27;100.00;99650.72;6265908;23;20008;-79
2022/04/23 04:21:58;;;;;;;0.20;0.20;;;;;;;11.30;100.00;99652.75;6240336;23;20000;-79
2022/04/23 04:24:26;;;;;;;0.20;0.20;;;;;;;11.26;100.00;99665.81;6240550;23;20005;-79
2022/04/23 04:26:52;;;;;;;0.20;0.20;;;;;;;11.25;100.00;99658.66;6266631;23;20000;-80
2022/04/23 04:29:18;;;;;;;0.20;0.20;;;;;;;11.26;100.00;99658.28;6235116;23;20012;-79
2022/04/23 04:31:50;;;;;;;0.20;0.20;;;;;;;11.32;100.00;99661.53;6236282;23;19996;-79
2022/04/23 04:34:23;;;;;;;0.20;0.20;;;;;;;11.48;100.00;99667.66;6236517;23;20000;-79
2022/04/23 04:36:50;;;;;;;0.20;0.20;;;;;;;11.36;100.00;99659.59;6239134;23;20008;-79
2022/04/23 04:39:17;;;;;;;0.20;0.20;;;;;;;11.42;100.00;99660.84;6239825;23;20039;-79
2022/04/23 04:41:43;;;;;;;0.22;0.22;;;;;;;11.44;100.00;99661.25;6238816;23;19996;-80
2022/04/23 04:44:12;;;;;;;0.20;0.20;;;;;;;11.68;100.00;99659.91;6237764;23;20005;-80
2022/04/23 04:46:38;;;;;;;0.20;0.20;;;;;;;11.77;100.00;99677.13;6235136;23;20004;-80
2022/04/23 04:49:05;;;;;;;0.20;0.20;;;;;;;11.76;100.00;99671.94;6235455;23;20008;-80
2022/04/23 04:51:31;;;;;;;0.20;0.20;;;;;;;11.67;99.15;99674.25;6236249;23;20026;-79
2022/04/23 04:53:59;;;;;;;0.20;0.20;;;;;;;11.63;99.50;99673.41;6238672;23;20024;-80
2022/04/23 04:56:25;;;;;;;0.20;0.20;;;;;;;11.55;99.12;99670.53;6234368;23;20032;-80
2022/04/23 04:58:51;;;;;;;0.20;0.20;;;;;;;11.58;99.63;99670.97;6234700;23;20012;-80
2022/04/23 05:01:16;;;;;;;0.20;0.20;;;;;;;11.67;99.61;99677.03;6235064;23;20024;-80
2022/04/23 05:03:43;;;;;;;0.20;0.20;;;;;;;11.69;99.66;99677.44;6233757;23;20005;-80
2022/04/23 05:06:09;;;;;;;0.20;0.20;;;;;;;11.77;99.92;99690.25;6233840;23;20005;-80
2022/04/23 05:08:35;;;;;;;0.20;0.20;;;;;;;11.92;99.76;99686.44;6232963;23;20067;-80
2022/04/23 05:11:08;;;;;;;0.20;0.20;;;;;;;12.19;97.90;99691.88;6236276;23;19996;-79
2022/04/23 05:13:37;;;;;;;0.20;0.20;;;;;;;12.26;97.44;99695.53;6237174;23;20008;-79
2022/04/23 05:16:19;;;;;;;0.20;0.20;;;;;;;12.33;96.27;99689.19;6237657;23;19996;-79
2022/04/23 05:18:44;;;;;;;0.20;0.20;;;;;;;12.33;97.12;99700.34;6239495;23;20007;-80
2022/04/23 05:21:11;;;;;;;0.20;0.20;;;;;;;12.32;96.85;99701.56;6215724;23;20004;-79
2022/04/23 05:23:40;;;;;;;0.20;0.20;;;;;;;12.41;97.80;99707.59;6235038;23;20060;-80
2022/04/23 05:26:06;;;;;;;0.20;0.20;;;;;;;12.47;97.19;99703.28;6232823;23;20005;-80
2022/04/23 05:28:32;;;;;;;0.20;0.20;;;;;;;12.50;96.31;99708.06;6234143;23;20016;-80
2022/04/23 05:30:59;;;;;;;0.20;0.20;;;;;;;12.57;96.82;99705.34;6226944;23;20054;-81
2022/04/23 05:33:24;;;;;;;0.20;0.20;;;;;;;12.63;96.45;99705.78;6226792;23;20000;-80
2022/04/23 05:35:50;;;;;;;0.20;0.20;;;;;;;12.72;96.76;99708.22;6223429;23;20011;-81
2022/04/23 05:38:20;;;;;;;0.20;0.20;;;;;;;12.78;96.29;99709.44;6222291;23;20038;-81
2022/04/23 05:40:46;;;;;;;0.20;0.20;;;;;;;12.84;95.85;99713.50;6197032;23;20008;-81
2022/04/23 05:43:12;;;;;;;0.20;0.20;;;;;;;12.91;95.38;99715.50;6224061;23;20012;-82
2022/04/23 05:45:41;;;;;;;0.20;0.20;;;;;;;12.94;94.66;99709.13;6222993;23;20010;-82
2022/04/23 05:48:10;;;;;;;0.20;0.20;;;;;;;12.97;93.70;99708.38;6214917;23;20008;-83
2022/04/23 05:50:36;;;;;;;0.20;0.20;;;;;;;13.17;93.15;99708.88;6221485;23;20425;-81
2022/04/23 05:53:06;;;;;;;0.20;0.20;;;;;;;13.47;92.62;99717.00;6248568;23;20008;-86
2022/04/23 05:55:35;;;;;;;0.20;0.20;;;;;;;13.70;90.80;99713.91;6223062;23;20019;-84
2022/04/23 05:58:03;;;;;;;0.20;0.20;;;;;;;13.69;88.93;99723.44;6222165;23;20015;-84
2022/04/23 06:00:29;;;;;;;0.20;0.20;;;;;;;13.72;89.68;99726.28;6248007;23;20030;-82
2022/04/23 06:03:00;;;;;;;0.20;0.20;;;;;;;13.79;89.02;99728.28;6220723;23;20008;-82
2022/04/23 06:05:28;;;;;;;0.20;0.20;;;;;;;13.96;88.91;99724.75;6220952;23;20012;-81
2022/04/23 06:07:54;;;;;;;0.20;0.20;;;;;;;14.15;87.46;99729.94;6220357;23;20090;-83
2022/04/23 06:10:20;;;;;;;0.20;0.20;;;;;;;14.33;86.47;99726.38;6221511;23;20040;-87
2022/04/23 06:12:45;;;;;;;0.20;0.20;;;;;;;14.64;83.84;99728.38;6195923;23;20314;-84
2022/04/23 06:15:15;;;;;;;0.20;0.20;;;;;;;14.89;81.65;99730.34;6221117;23;20019;-84
2022/04/23 06:17:41;;;;;;;0.20;0.20;;;;;;;14.83;81.02;99729.16;6220834;23;20008;-82
2022/04/23 06:20:07;;;;;;;0.20;0.20;;;;;;;14.68;80.24;99737.59;6221093;23;20007;-87
2022/04/23 06:22:32;;;;;;;0.20;0.20;;;;;;;14.96;81.79;99733.13;6220839;23;20084;-83
2022/04/23 06:24:58;;;;;;;0.20;0.20;;;;;;;15.89;78.39;99727.19;6221400;23;20417;-84
2022/04/23 06:27:23;;;;;;;0.20;0.20;;;;;;;16.08;74.82;99735.06;6220746;23;20425;-85
2022/04/23 06:29:49;;;;;;;0.17;0.17;;;;;;;15.87;74.96;99746.44;6220386;23;20114;-84
2022/04/23 06:32:15;;;;;;;0.20;0.20;;;;;;;16.28;72.79;99748.59;6220530;23;20046;-86
2022/04/23 06:34:40;;;;;;;0.20;0.20;;;;;;;16.76;71.09;99746.59;6221133;23;20069;-81
2022/04/23 06:37:06;;;;;;;0.20;0.20;;;;;;;17.90;67.35;99749.38;6220644;23;20339;-79
2022/04/23 06:39:32;;;;;;;0.20;0.20;;;;;;;18.32;63.82;99757.19;6221035;23;20135;-84
2022/04/23 06:41:58;;;;;;;0.20;0.20;;;;;;;18.81;62.14;99763.25;6220289;23;20004;-79
2022/04/23 06:44:24;;;;;;;0.20;0.20;;;;;;;18.22;63.85;99766.59;6220225;23;20015;-84
2022/04/23 06:46:52;;;;;;;0.20;0.20;;;;;;;18.22;63.34;99763.78;6220749;23;20035;-83
2022/04/23 06:49:17;;;;;;;0.20;0.20;;;;;;;18.41;62.03;99767.09;6220807;23;20015;-85
2022/04/23 06:51:43;;;;;;;0.20;0.20;;;;;;;18.83;60.57;99769.25;6220240;23;20079;-80
2022/04/23 06:54:09;;;;;;;0.20;0.20;;;;;;;18.15;61.81;99726.47;6219923;23;20008;-80
2022/04/23 06:56:34;;;;;;;0.20;0.20;;;;;;;18.89;61.42;99763.91;6221013;23;20039;-82
2022/04/23 06:59:00;;;;;;;0.20;0.20;;;;;;;19.45;60.01;99766.91;6220479;23;20457;-81
2022/04/23 07:01:27;;;;;;;0.20;0.20;;;;;;;19.31;60.94;99767.16;6225992;23;20027;-80
2022/04/23 07:03:53;;;;;;;0.20;0.20;;;;;;;19.76;58.68;99775.97;6226925;23;20008;-82
2022/04/23 07:06:19;;;;;;;0.20;0.20;;;;;;;19.47;59.84;99783.38;6220502;23;20008;-84
2022/04/23 07:08:47;;;;;;;0.20;0.20;;;;;;;18.90;62.43;99784.44;6220108;23;20070;-78
2022/04/23 07:11:12;;;;;;;0.20;0.20;;;;;;;18.47;63.48;99794.34;6220181;23;20004;-82
2022/04/23 07:13:43;;;;;;;0.20;0.20;;;;;;;18.86;62.38;99786.53;6220837;23;20058;-85
2022/04/23 07:16:11;;;;;;;0.20;0.20;;;;;;;18.26;64.79;99784.22;6220442;23;20409;-85
2022/04/23 07:18:39;;;;;;;0.15;0.15;;;;;;;19.14;64.22;99791.66;6220257;23;20429;-84
2022/04/23 07:21:05;;;;;;;0.20;0.20;;;;;;;18.16;64.42;99807.69;6247050;23;20004;-79
2022/04/23 07:26:14;;;;;;;0.20;0.20;;;;;;;17.79;67.59;99806.59;6247215;23;20019;-83
2022/04/23 07:28:43;;;;;;;0.10;0.10;;;;;;;18.03;65.57;99810.28;6219659;23;20008;-83
2022/04/23 07:31:08;;;;;;;0.20;0.20;;;;;;;17.78;66.50;99810.59;6220421;23;20004;-81
2022/04/23 07:39:01;;;;;;;0.20;0.20;;;;;;;17.66;68.32;99813.94;6247938;23;20412;-85
2022/04/23 07:41:27;;;;;;;0.20;0.20;;;;;;;18.86;65.12;99826.81;6220253;23;20032;-84
2022/04/23 07:43:54;;;;;;;0.20;0.20;;;;;;;19.72;61.75;99822.44;6219948;23;20005;-81
2022/04/23 07:46:20;;;;;;;0.20;0.20;;;;;;;20.04;59.61;99824.59;6195205;23;20329;-81
2022/04/23 07:48:46;;;;;;;0.20;0.20;;;;;;;19.70;60.19;99828.50;6220381;23;20004;-85
2022/04/23 07:51:12;;;;;;;0.20;0.20;;;;;;;19.21;59.67;99825.38;6220494;23;20030;-83
2022/04/23 07:53:38;;;;;;;0.20;0.20;;;;;;;19.26;60.83;99824.88;6247297;23;20368;-85
2022/04/23 07:56:04;;;;;;;0.20;0.20;;;;;;;19.27;60.22;99820.03;6219733;23;20004;-84
2022/04/23 07:58:32;;;;;;;0.20;0.20;;;;;;;18.94;62.06;99838.75;6220406;23;20011;-80
2022/04/23 08:00:58;;;;;;;0.20;0.20;;;;;;;18.64;63.39;99846.00;6219562;23;20008;-84
2022/04/23 08:03:24;;;;;;;0.20;0.20;;;;;;;18.43;64.25;99855.59;6219384;23;20015;-85
2022/04/23 08:05:51;;;;;;;0.20;0.20;;;;;;;18.23;65.92;99852.66;6219199;23;20008;-80
2022/04/23 08:08:17;;;;;;;0.20;0.20;;;;;;;17.94;65.53;99857.03;6219426;23;20012;-85
2022/04/23 08:10:46;;;;;;;0.20;0.20;;;;;;;18.69;62.80;99859.66;6219830;23;20008;-83
2022/04/23 08:13:12;;;;;;;0.20;0.20;;;;;;;18.71;63.19;99860.03;6220240;23;20436;-85
2022/04/23 08:15:37;;;;;;;0.20;0.20;;;;;;;18.47;64.71;99864.78;6219924;23;20030;-80
2022/04/23 08:18:04;;;;;;;0.20;0.20;;;;;;;18.10;66.04;99870.53;6220530;23;20330;-83
2022/04/23 08:20:37;;;;;;;0.20;0.20;;;;;;;17.88;66.77;99870.00;6246550;23;20429;-85
2022/04/23 08:23:03;;;;;;;0.20;0.20;;;;;;;17.87;66.94;99871.22;6219602;23;20004;-83
2022/04/23 08:25:28;;;;;;;0.20;0.20;;;;;;;18.29;65.44;99872.69;6219931;23;20010;-85
2022/04/23 08:30:34;;;;;;;0.20;0.20;;;;;;;18.56;64.36;99873.50;6219502;23;20425;-78
2022/04/23 08:30:42;;;;;;;0.20;0.20;;;;;;;18.56;63.17;99872.72;6245479;23;20340;-82
2022/04/23 08:33:11;;;;;;;0.20;0.20;;;;;;;18.67;63.38;99870.53;6219418;23;20004;-86
2022/04/23 08:35:38;;;;;;;0.20;0.20;;;;;;;18.63;62.12;99869.78;6219520;23;20417;-84
2022/04/23 08:38:05;;;;;;;0.20;0.20;;;;;;;19.73;59.15;99869.19;6219496;23;20004;-79
2022/04/23 08:40:41;;;;;;;0.20;0.20;;;;;;;20.20;57.82;99872.66;6219426;23;20041;-84
2022/04/23 08:43:11;;;;;;;0.20;0.20;;;;;;;20.40;57.17;99867.78;6219398;23;20008;-82
2022/04/23 08:45:39;;;;;;;0.20;0.20;;;;;;;20.75;55.70;99865.38;6245892;23;20001;-80
2022/04/23 08:48:09;;;;;;;0.10;0.10;;;;;;;20.67;54.63;99867.59;6219919;23;20103;-84
2022/04/23 08:50:39;;;;;;;0.20;0.20;;;;;;;21.18;53.85;99870.00;6219212;23;20032;-81
2022/04/23 08:53:18;;;;;;;0.20;0.20;;;;;;;20.73;53.32;99870.69;6245717;23;20001;-78
2022/04/23 08:55:46;;;;;;;0.20;0.20;;;;;;;20.64;54.45;99867.66;6220266;23;20086;-80
2022/04/23 08:58:13;;;;;;;0.20;0.20;;;;;;;21.07;52.75;99866.63;6220078;23;20487;-85
2022/04/23 09:00:39;;;;;;;0.20;0.20;;;;;;;21.88;50.79;99872.16;6219229;23;20043;-81
2022/04/23 09:03:05;;;;;;;0.20;0.20;;;;;;;22.06;48.96;99868.84;6219492;23;20004;-77
2022/04/23 09:05:31;;;;;;;0.20;0.20;;;;;;;22.48;48.79;99875.31;6219615;23;20421;-78
2022/04/23 09:07:57;;;;;;;0.20;0.20;;;;;;;22.58;47.74;99869.72;6219081;23;20008;-78
2022/04/23 09:10:42;;;;;;;0.10;0.10;;;;;;;23.06;46.33;99882.00;6219126;23;20014;-79
2022/04/23 09:13:07;;;;;;;0.10;0.10;;;;;;;23.38;44.41;99886.59;6218925;23;20083;-77
2022/04/23 09:24:09;;;;;;;0.20;0.20;;;;;;;24.18;41.89;99886.19;6248186;23;20026;-81
2022/04/23 09:26:35;;;;;;;0.10;0.10;;;;;;;24.39;41.33;99874.03;6247401;23;20027;-77
2022/04/23 09:29:16;;;;;;;0.10;0.10;;;;;;;24.42;41.69;99878.78;6220321;23;20023;-81
2022/04/23 09:31:42;;;;;;;0.13;0.13;;;;;;;23.56;43.49;99872.59;6221225;23;20412;-81
2022/04/23 09:34:18;;;;;;;0.20;0.20;;;;;;;24.44;41.47;99876.28;6220741;23;20073;-79
2022/04/23 09:36:48;;;;;;;0.10;0.10;;;;;;;23.81;42.08;99880.25;6220563;23;20000;-76
2022/04/23 09:39:13;;;;;;;0.20;0.20;;;;;;;24.43;40.66;99879.59;6220284;23;20019;-81
2022/04/23 09:41:39;;;;;;;0.10;0.10;;;;;;;23.97;39.67;99871.53;6220535;23;20008;-81
2022/04/23 09:44:07;;;;;;;0.10;0.10;;;;;;;24.40;40.26;99857.78;6221318;23;20259;-82
2022/04/23 09:46:46;;;;;;;0.13;0.13;;;;;;;23.34;41.72;99874.59;6247902;23;20360;-78
2022/04/23 09:49:21;;;;;;;0.10;0.10;;;;;;;23.96;40.09;99855.72;6247808;23;20000;-81
2022/04/23 09:52:09;;;;;;;0.10;0.10;;;;;;;23.33;40.29;99862.44;6247043;23;20008;-78
2022/04/23 09:54:37;;;;;;;0.10;0.10;;;;;;;23.72;40.82;99871.66;6247566;23;20103;-77
2022/04/23 09:57:06;;;;;;;0.10;0.10;;;;;;;24.12;39.98;99862.47;6221390;23;20004;-82
2022/04/23 09:59:31;;;;;;;0.10;0.10;;;;;;;24.54;38.68;99860.84;6220159;23;20008;-81
2022/04/23 10:01:58;;;;;;;0.10;0.10;;;;;;;23.76;40.10;99867.44;6220922;23;20083;-78
2022/04/23 10:04:26;;;;;;;0.10;0.10;;;;;;;24.37;39.93;99865.19;6220655;23;20004;-82
2022/04/23 10:06:52;;;;;;;0.10;0.10;;;;;;;24.45;39.88;99860.00;6221031;23;20008;-80
2022/04/23 10:09:26;;;;;;;0.20;0.20;;;;;;;24.78;39.95;99861.13;6247732;23;20012;-81
2022/04/23 10:12:04;;;;;;;0.20;0.20;;;;;;;24.43;39.52;99862.53;6247876;23;20014;-79
2022/04/23 10:14:35;;;;;;;0.10;0.10;;;;;;;24.23;39.51;99860.78;6247609;23;20083;-81
2022/04/23 10:17:05;;;;;;;0.20;0.20;;;;;;;24.05;39.03;99872.84;6195578;23;20416;-80
2022/04/23 10:19:32;;;;;;;0.10;0.10;;;;;;;24.59;37.86;99870.03;6220979;23;20401;-79
2022/04/23 10:22:21;;;;;;;0.10;0.10;;;;;;;24.41;41.28;99880.06;6220814;23;20425;-80
2022/04/23 10:25:25;;;;;;;0.20;0.20;;;;;;;;;;6220967;23;20317;-78
2022/04/23 10:27:55;;;;;;;0.10;0.10;;;;;;;22.92;43.97;99878.41;6071066;23;20038;-81
2022/04/23 10:30:24;;;;;;;0.13;0.13;;;;;;;23.55;41.90;99881.56;6223102;23;20028;-81
2022/04/23 10:32:50;;;;;;;0.10;0.10;;;;;;;23.03;42.76;99877.25;6220255;23;20087;-80
2022/04/23 10:35:18;;;;;;;0.10;0.10;;;;;;;22.89;42.43;99873.63;6219986;23;20055;-77
2022/04/23 10:37:48;;;;;;;0.10;0.10;;;;;;;22.91;43.60;99879.66;6220257;23;20004;-81
2022/04/23 10:40:19;;;;;;;0.10;0.10;;;;;;;23.10;43.56;99882.69;6220444;23;20441;-79
2022/04/23 10:43:05;;;;;;;0.20;0.20;;;;;;;23.91;41.27;99873.38;6219873;23;20015;-78
2022/04/23 10:45:32;;;;;;;0.10;0.10;;;;;;;24.31;40.86;99861.34;6220801;23;20337;-80
2022/04/23 10:48:24;;;;;;;0.10;0.10;;;;;;;24.42;40.70;99866.63;6219875;23;20388;-77
2022/04/23 10:51:16;;;;;;;0.10;0.10;;;;;;;24.03;40.90;99869.69;6246867;23;20066;-78
2022/04/23 10:53:41;;;;;;;0.10;0.10;;;;;;;23.25;41.68;99852.56;6246997;23;20008;-81
2022/04/23 10:56:07;;;;;;;0.10;0.10;;;;;;;23.46;41.06;99887.94;6219857;23;20058;-81
2022/04/23 10:58:33;;;;;;;0.10;0.10;;;;;;;23.60;41.50;99875.31;6219710;23;20019;-78
2022/04/23 11:01:20;;;;;;;0.13;0.13;;;;;;;23.45;41.71;99881.47;6219935;23;20008;-81
2022/04/23 11:03:56;;;;;;;0.10;0.10;;;;;;;23.92;40.79;99871.34;6220552;23;20078;-80
2022/04/23 11:12:37;;;;;;;0.10;0.10;;;;;;;22.41;43.14;99883.22;6246635;23;20403;-77
2022/04/23 11:15:14;;;;;;;0.20;0.20;;;;;;;22.72;42.39;99883.47;6247023;23;20007;-82
2022/04/23 11:17:39;;;;;;;0.10;0.10;;;;;;;22.85;41.60;99889.13;6247158;23;20011;-79
2022/04/23 11:20:09;;;;;;;0.20;0.20;;;;;;;22.53;43.87;99884.47;6220035;23;20334;-79
2022/04/23 11:22:37;;;;;;;0.10;0.10;;;;;;;21.97;43.75;99889.31;6247333;23;20271;-80
2022/04/23 11:25:03;;;;;;;0.13;0.13;;;;;;;22.73;42.18;99893.56;6220653;23;20011;-77
2022/04/23 11:27:40;;;;;;;0.10;0.10;;;;;;;22.62;42.28;99887.44;6220566;23;20030;-78
2022/04/23 11:30:11;;;;;;;0.10;0.10;;;;;;;22.19;44.25;99895.19;6214160;23;20092;-79
2022/04/23 11:32:37;;;;;;;0.10;0.10;;;;;;;22.43;44.00;99892.06;6214792;23;20019;-77
2022/04/23 11:35:07;;;;;;;0.20;0.20;;;;;;;22.05;43.40;99889.91;6214708;23;20036;-77
2022/04/23 11:37:37;;;;;;;0.20;0.20;;;;;;;22.78;42.32;99890.16;6215405;23;20483;-80
2022/04/23 11:40:10;;;;;;;0.10;0.10;;;;;;;22.58;42.30;99898.88;6214667;23;20092;-76
2022/04/23 11:42:46;;;;;;;0.10;0.10;;;;;;;22.33;43.20;99899.66;6216738;23;20083;-77
2022/04/23 11:45:17;;;;;;;0.15;0.15;;;;;;;22.97;41.54;99899.72;6214407;23;20005;-79
2022/04/23 11:47:43;;;;;;;0.10;0.10;;;;;;;22.38;42.28;99896.25;6214575;23;20040;-80
2022/04/23 11:50:08;;;;;;;0.17;0.17;;;;;;;22.34;42.24;99903.28;6214631;23;20066;-81
2022/04/23 11:52:34;;;;;;;0.10;0.10;;;;;;;22.03;42.33;99897.25;6214748;23;20009;-80
2022/04/23 11:55:01;;;;;;;0.20;0.20;;;;;;;22.08;41.24;99899.56;6214625;23;20012;-79
2022/04/23 11:57:27;;;;;;;0.15;0.15;;;;;;;21.78;41.71;99898.75;6216594;23;20076;-80
2022/04/23 12:00:03;;;;;;;0.10;0.10;;;;;;;21.53;41.21;99904.31;6214592;23;20087;-76
2022/04/23 12:02:30;;;;;;;0.13;0.13;;;;;;;21.87;41.46;99892.44;6216373;23;20492;-79